Time;durP1;ratioP1;P1;durP2;ratioP2;P2;SDS_P1;SDS_P2;PMS_P1;PMS_P2;Temp;Humidity;BMP_temperature;BMP_pressure;BME280_temperature;BME280_humidity;BME280_pressure;Samples;Min_cycle;Max_cycle;Signal;HPM_P1;HPM_P2
2022/06/16 00:00:44;;;;;;;7.28;4.03;;;;;;;17.17;60.28;101663.06;4940172;28;121096;-79
2022/06/16 00:03:11;;;;;;;10.63;4.30;;;;;;;17.24;60.15;101673.00;4938618;28;120787;-79
2022/06/16 00:05:39;;;;;;;6.55;3.75;;;;;;;17.17;60.17;101657.50;4941457;28;119136;-79
2022/06/16 00:08:07;;;;;;;9.02;4.47;;;;;;;17.21;60.39;101670.44;4929275;28;120997;-79
2022/06/16 00:10:34;;;;;;;9.20;4.40;;;;;;;17.19;60.57;101666.13;4934008;28;119621;-79
2022/06/16 00:13:00;;;;;;;9.07;4.40;;;;;;;17.17;60.26;101654.75;4936561;28;119435;-78
2022/06/16 00:15:27;;;;;;;10.38;4.63;;;;;;;17.15;60.18;101654.44;4935422;28;120055;-78
2022/06/16 00:17:54;;;;;;;9.57;4.55;;;;;;;17.05;60.59;101635.59;4916522;28;120066;-77
2022/06/16 00:20:20;;;;;;;9.25;4.50;;;;;;;17.10;61.07;101643.25;4934134;28;119419;-78
2022/06/16 00:22:46;;;;;;;5.30;3.70;;;;;;;17.10;61.58;101643.25;4936990;28;120056;-78
2022/06/16 00:25:13;;;;;;;8.98;4.30;;;;;;;17.06;61.38;101626.78;4926518;28;119412;-78
2022/06/16 00:27:39;;;;;;;8.27;4.63;;;;;;;17.09;61.54;101628.63;4932293;28;119445;-78
2022/06/16 00:30:07;;;;;;;8.55;4.00;;;;;;;17.11;61.74;101634.47;4950185;28;119467;-77
2022/06/16 00:32:33;;;;;;;8.63;3.67;;;;;;;17.12;61.33;101638.75;4913876;28;120737;-77
2022/06/16 00:35:18;;;;;;;9.15;4.28;;;;;;;17.11;61.58;101634.47;4930231;28;119429;-77
2022/06/16 00:37:44;;;;;;;9.80;4.10;;;;;;;17.09;61.60;101633.41;4920185;28;119652;-77
2022/06/16 00:40:10;;;;;;;10.05;4.35;;;;;;;17.11;61.70;101637.22;4936428;28;119332;-77
2022/06/16 00:42:36;;;;;;;7.80;4.13;;;;;;;17.09;61.53;101627.84;4919365;28;120454;-77
2022/06/16 00:45:23;;;;;;;8.55;4.07;;;;;;;17.11;61.04;101634.47;4915444;28;119866;-77
2022/06/16 00:47:49;;;;;;;8.80;4.30;;;;;;;17.10;61.29;101638.47;4916394;28;119442;-77
2022/06/16 00:50:15;;;;;;;8.07;4.05;;;;;;;17.10;61.19;101635.69;4928418;28;120154;-78
2022/06/16 00:52:41;;;;;;;5.38;3.95;;;;;;;17.11;61.35;101634.47;4947276;28;119584;-78
2022/06/16 00:55:15;;;;;;;7.15;4.18;;;;;;;17.05;61.58;101628.03;4923783;28;120607;-78
2022/06/16 00:57:48;;;;;;;8.32;4.35;;;;;;;17.11;61.04;101631.69;4917171;28;119431;-78
2022/06/16 01:02:44;;;;;;;8.60;4.30;;;;;;;17.09;61.63;101631.41;4954118;28;120448;-78
2022/06/16 01:05:13;;;;;;;9.98;4.07;;;;;;;17.11;61.32;101634.47;4945943;28;119751;-77
2022/06/16 01:07:43;;;;;;;10.73;4.50;;;;;;;17.12;61.68;101638.00;4950338;28;119817;-78
2022/06/16 01:10:10;;;;;;;6.95;3.85;;;;;;;17.06;61.56;101632.34;4933832;28;119405;-77
2022/06/16 01:16:09;;;;;;;9.13;3.67;;;;;;;17.06;61.39;101629.56;4938036;28;120476;-77
2022/06/16 01:18:57;;;;;;;7.68;3.83;;;;;;;17.06;61.69;101639.88;4934151;28;119515;-77
2022/06/16 01:22:01;;;;;;;9.82;4.43;;;;;;;17.03;61.63;101641.56;4934879;28;119493;-77
2022/06/16 01:24:39;;;;;;;8.73;4.97;;;;;;;16.99;61.25;101641.00;4918798;28;120535;-78
2022/06/16 01:27:53;;;;;;;9.52;4.15;;;;;;;16.99;61.21;101641.00;4934515;28;119725;-77
2022/06/16 01:30:43;;;;;;;10.35;4.60;;;;;;;16.96;61.39;101655.03;4892408;28;120076;-78
2022/06/16 01:33:29;;;;;;;8.80;4.47;;;;;;;16.94;61.45;101646.41;4954387;28;119579;-78
2022/06/16 01:36:05;;;;;;;10.13;4.80;;;;;;;16.90;61.46;101637.53;4926028;28;119714;-78
2022/06/16 01:38:58;;;;;;;8.30;5.03;;;;;;;16.88;61.15;101646.31;4906368;28;120422;-77
2022/06/16 01:41:40;;;;;;;11.93;5.25;;;;;;;16.80;61.01;101639.59;4923498;28;120171;-78
2022/06/16 01:44:18;;;;;;;10.52;5.45;;;;;;;16.77;60.61;101648.81;4937487;28;119348;-77
2022/06/16 01:46:57;;;;;;;10.10;5.30;;;;;;;16.75;61.10;101659.59;4900538;28;122122;-77
2022/06/16 01:49:35;;;;;;;8.32;4.95;;;;;;;16.72;61.36;101652.22;4953389;28;119837;-77
2022/06/16 01:52:18;;;;;;;10.43;5.63;;;;;;;16.66;61.59;101643.81;4952550;28;119809;-78
2022/06/16 01:54:56;;;;;;;8.10;5.10;;;;;;;16.68;62.10;101654.41;4952423;28;119675;-77
2022/06/16 01:57:26;;;;;;;11.95;5.90;;;;;;;16.70;61.40;101641.63;4951431;28;119801;-77
2022/06/16 02:00:01;;;;;;;7.72;5.95;;;;;;;16.65;61.10;101649.78;4922898;28;119497;-79
2022/06/16 02:02:39;;;;;;;9.43;5.78;;;;;;;16.52;60.88;101642.44;4938747;28;119975;-78
2022/06/16 02:05:14;;;;;;;7.50;5.87;;;;;;;16.53;61.21;101645.97;4922314;28;119397;-79
2022/06/16 02:07:52;;;;;;;13.25;6.70;;;;;;;16.42;61.07;101638.19;4940744;28;120174;-80
2022/06/16 02:10:42;;;;;;;14.90;6.50;;;;;;;16.42;61.47;101640.97;4939416;28;119184;-81
2022/06/16 02:13:52;;;;;;;8.95;6.38;;;;;;;16.42;61.66;101652.03;4915366;28;119253;-78
2022/06/16 02:16:31;;;;;;;12.65;5.80;;;;;;;16.43;61.80;101656.34;4918577;28;122029;-77
2022/06/16 02:19:00;;;;;;;9.60;6.10;;;;;;;16.40;62.38;101645.44;4943345;28;119165;-80
2022/06/16 02:21:41;;;;;;;10.77;6.68;;;;;;;16.44;61.86;101662.63;4956700;28;119887;-80
2022/06/16 02:24:13;;;;;;;10.52;6.32;;;;;;;16.41;62.23;101666.34;4930343;28;119870;-78
2022/06/16 02:26:39;;;;;;;10.52;6.45;;;;;;;16.41;62.71;101669.88;4925540;28;119386;-79
2022/06/16 02:29:29;;;;;;;10.57;6.60;;;;;;;16.45;62.44;101676.03;4937651;28;121694;-79
2022/06/16 02:32:00;;;;;;;13.48;6.75;;;;;;;16.46;62.76;101665.72;4921690;28;119318;-78
2022/06/16 02:35:08;;;;;;;11.57;6.90;;;;;;;16.47;62.52;101668.00;4937874;28;119507;-78
2022/06/16 02:37:59;;;;;;;10.77;6.93;;;;;;;16.45;62.43;101675.25;4937117;28;120028;-79
2022/06/16 02:40:43;;;;;;;12.98;6.47;;;;;;;16.44;62.79;101676.50;4936067;28;119748;-78
2022/06/16 02:43:31;;;;;;;8.13;5.55;;;;;;;16.44;62.17;101671.72;4920294;28;120337;-79
2022/06/16 02:46:05;;;;;;;9.90;6.47;;;;;;;16.43;62.33;101675.72;4919604;28;122981;-79
2022/06/16 02:48:54;;;;;;;10.27;6.75;;;;;;;16.44;62.40;101674.47;4933082;28;119463;-78
2022/06/16 02:52:07;;;;;;;13.05;6.63;;;;;;;16.40;62.64;101665.59;4918497;28;122675;-79
2022/06/16 02:55:05;;;;;;;10.90;6.60;;;;;;;16.42;62.24;101667.88;4910499;28;119741;-78
2022/06/16 02:57:34;;;;;;;12.27;6.45;;;;;;;16.41;62.77;101669.88;4933787;28;119684;-79
2022/06/16 03:00:08;;;;;;;9.63;6.70;;;;;;;16.38;62.79;101664.53;4935364;28;121139;-79
2022/06/16 03:02:37;;;;;;;12.80;6.68;;;;;;;16.39;62.67;101661.28;4936529;28;120050;-79
2022/06/16 03:05:16;;;;;;;9.77;6.30;;;;;;;16.41;62.42;101661.56;4932853;28;119336;-79
2022/06/16 03:07:44;;;;;;;12.75;6.68;;;;;;;16.42;62.63;101670.66;4917850;28;119648;-79
2022/06/16 03:10:50;;;;;;;9.40;6.38;;;;;;;16.41;62.80;101661.56;4901721;28;119537;-79
2022/06/16 03:13:06;;;;;;;13.48;7.00;;;;;;;16.39;62.79;101655.75;4917699;28;119637;-79
2022/06/16 03:15:32;;;;;;;13.27;6.85;;;;;;;16.44;63.32;101665.41;4933101;28;119402;-78
2022/06/16 03:17:57;;;;;;;12.18;6.80;;;;;;;16.43;62.35;101661.09;4920716;28;119640;-79
2022/06/16 03:20:35;;;;;;;10.77;6.30;;;;;;;16.42;62.40;101663.13;4945848;28;122393;-79
2022/06/16 03:23:02;;;;;;;11.05;6.65;;;;;;;16.42;62.31;101663.13;4903806;28;119888;-79
2022/06/16 03:25:28;;;;;;;10.07;6.68;;;;;;;16.32;62.39;101644.22;4944172;28;119370;-79
2022/06/16 03:27:57;;;;;;;10.68;7.15;;;;;;;16.39;62.19;101652.97;4931045;28;119971;-79
2022/06/16 03:30:24;;;;;;;11.23;7.00;;;;;;;16.39;62.71;101655.75;4918398;28;119747;-79
2022/06/16 03:32:51;;;;;;;12.63;7.45;;;;;;;16.36;62.51;101640.06;4909097;28;121914;-79
2022/06/16 03:35:20;;;;;;;11.00;6.70;;;;;;;16.41;62.84;101646.97;4920023;28;123222;-79
2022/06/16 03:37:46;;;;;;;12.45;6.80;;;;;;;16.43;62.81;101641.72;4940253;28;119884;-79
2022/06/16 03:40:13;;;;;;;13.85;6.85;;;;;;;16.43;62.36;101639.72;4922052;28;120242;-79
2022/06/16 03:42:40;;;;;;;11.90;7.15;;;;;;;16.41;62.53;101636.66;4917553;28;119598;-79
2022/06/16 03:45:08;;;;;;;10.93;6.38;;;;;;;16.43;62.63;101644.50;4901121;28;120803;-78
2022/06/16 03:47:35;;;;;;;11.45;6.55;;;;;;;16.46;62.86;101644.31;4926427;28;120020;-79
2022/06/16 03:50:01;;;;;;;15.63;6.97;;;;;;;16.45;62.79;101648.31;4943836;28;119594;-79
2022/06/16 03:52:35;;;;;;;11.65;6.82;;;;;;;16.50;63.19;101649.69;4955406;28;119865;-79
2022/06/16 03:55:01;;;;;;;9.77;6.68;;;;;;;16.50;63.32;101644.91;4922716;28;121543;-79
2022/06/16 03:57:27;;;;;;;11.15;7.32;;;;;;;16.56;63.30;101648.59;4940832;28;118573;-79
2022/06/16 03:59:53;;;;;;;16.10;6.97;;;;;;;16.61;63.29;101652.72;4906083;28;120345;-79
2022/06/16 04:02:39;;;;;;;10.45;7.00;;;;;;;16.61;63.57;101643.66;4915259;28;119746;-79
2022/06/16 04:05:11;;;;;;;11.52;7.15;;;;;;;16.66;63.40;101651.31;4901066;28;120418;-79
2022/06/16 04:07:42;;;;;;;13.43;7.38;;;;;;;16.69;63.25;101656.72;4932369;28;121186;-79
2022/06/16 04:10:13;;;;;;;13.50;7.60;;;;;;;16.72;63.41;101660.53;4907061;28;119433;-79
2022/06/16 04:12:41;;;;;;;13.13;7.57;;;;;;;16.74;63.46;101661.59;4900609;28;122123;-79
2022/06/16 04:15:11;;;;;;;10.80;7.18;;;;;;;16.77;63.45;101657.13;4916589;28;121034;-79
2022/06/16 04:17:37;;;;;;;10.73;7.10;;;;;;;16.78;63.23;101658.66;4916064;28;119341;-79
2022/06/16 04:20:17;;;;;;;12.35;7.18;;;;;;;16.80;63.34;101661.75;4918463;28;121188;-79
2022/06/16 04:22:51;;;;;;;;;;;;;;;16.83;63.05;101672.66;4936125;28;119696;-79
2022/06/16 04:25:32;;;;;;;15.43;8.45;;;;;;;16.84;63.29;101668.66;4936215;28;120048;-79
2022/06/16 04:28:18;;;;;;;13.50;8.55;;;;;;;16.88;63.81;101663.69;4936092;28;120027;-79
2022/06/16 04:30:49;;;;;;;17.25;8.90;;;;;;;16.91;63.30;101669.53;4919461;28;119435;-79
2022/06/16 04:33:21;;;;;;;15.40;8.68;;;;;;;16.91;63.16;101667.53;4936185;28;119695;-79
2022/06/16 04:35:48;;;;;;;13.57;8.38;;;;;;;16.95;63.26;101670.91;4951280;28;120167;-79
2022/06/16 04:38:16;;;;;;;15.77;8.73;;;;;;;16.96;63.17;101669.66;4943984;28;119421;-79
2022/06/16 04:40:42;;;;;;;11.88;8.20;;;;;;;17.01;63.63;101676.56;4905825;28;120735;-79
2022/06/16 04:43:14;;;;;;;13.50;8.07;;;;;;;17.04;63.46;101681.94;4930998;28;119523;-79
2022/06/16 04:45:42;;;;;;;14.38;7.97;;;;;;;17.07;63.59;101681.00;4915649;28;119702;-79
2022/06/16 04:48:19;;;;;;;15.73;8.13;;;;;;;17.08;63.57;101688.06;4912783;28;119445;-79
2022/06/16 04:50:45;;;;;;;13.70;7.45;;;;;;;17.13;63.46;101690.19;4900499;28;119411;-79
2022/06/16 04:53:14;;;;;;;14.13;7.50;;;;;;;17.14;63.50;101690.97;4908800;28;120862;-79
2022/06/16 04:55:59;;;;;;;14.75;7.63;;;;;;;17.19;63.27;101693.06;4935472;28;120455;-79
2022/06/16 04:58:40;;;;;;;15.00;7.40;;;;;;;17.22;62.98;101691.38;4935328;28;119701;-79
2022/06/16 05:01:20;;;;;;;14.55;7.68;;;;;;;17.26;63.42;101701.03;4935213;28;119387;-79
2022/06/16 05:04:07;;;;;;;12.43;7.90;;;;;;;17.34;63.67;101707.00;4933904;28;120557;-79
2022/06/16 05:06:45;;;;;;;15.80;7.70;;;;;;;17.35;63.55;101698.22;4923641;28;119407;-79
2022/06/16 05:09:14;;;;;;;11.88;7.22;;;;;;;17.43;63.57;101704.16;4918061;28;121163;-79
2022/06/16 05:11:44;;;;;;;13.15;7.80;;;;;;;17.47;63.49;101696.44;4935533;28;119552;-79
2022/06/16 05:14:32;;;;;;;11.63;7.75;;;;;;;17.52;63.33;101695.78;4930173;28;119223;-79
2022/06/16 05:17:20;;;;;;;14.20;7.78;;;;;;;17.56;63.35;101701.16;4936039;28;119239;-79
2022/06/16 05:20:12;;;;;;;12.60;7.38;;;;;;;17.62;63.45;101693.69;4927376;28;119294;-79
2022/06/16 05:22:41;;;;;;;13.20;7.57;;;;;;;17.64;63.64;101697.53;4915716;28;121939;-79
2022/06/16 05:25:15;;;;;;;10.32;7.05;;;;;;;17.65;63.32;101696.28;4915431;28;119643;-79
2022/06/16 05:27:56;;;;;;;12.52;7.15;;;;;;;17.72;63.33;101707.03;4916052;28;119408;-79
2022/06/16 05:30:42;;;;;;;11.38;6.78;;;;;;;17.73;63.38;101716.91;4939031;28;121263;-78
2022/06/16 05:33:41;;;;;;;15.70;6.20;;;;;;;17.77;62.82;101705.63;4890526;28;119673;-78
2022/06/16 05:36:35;;;;;;;11.13;6.68;;;;;;;17.78;63.14;101707.16;4910485;28;119769;-78
2022/06/16 05:39:34;;;;;;;13.45;6.90;;;;;;;17.86;62.78;101713.09;4900660;28;120919;-78
2022/06/16 05:43:03;;;;;;;11.30;6.15;;;;;;;17.87;62.83;101711.88;4914798;28;120152;-81
2022/06/16 05:45:49;;;;;;;12.10;6.65;;;;;;;17.90;63.59;101708.91;4913312;28;119961;-78
2022/06/16 05:48:22;;;;;;;11.73;6.13;;;;;;;17.96;63.95;101711.78;4897816;28;121731;-79
2022/06/16 05:50:48;;;;;;;9.70;6.07;;;;;;;18.01;63.64;101711.13;4943627;28;119684;-79
2022/06/16 05:53:14;;;;;;;12.23;6.40;;;;;;;18.03;63.42;101706.63;4901009;28;120761;-79
2022/06/16 05:55:43;;;;;;;11.60;5.53;;;;;;;18.05;63.24;101712.47;4925133;28;119444;-79
2022/06/16 05:58:09;;;;;;;10.80;5.30;;;;;;;18.12;62.88;101725.19;4927030;28;120787;-79
2022/06/16 06:00:48;;;;;;;11.52;5.60;;;;;;;18.10;62.40;101711.03;4919468;28;120660;-79
2022/06/16 06:03:17;;;;;;;11.88;4.85;;;;;;;18.16;62.45;101717.44;4899049;28;119865;-79
2022/06/16 06:05:44;;;;;;;10.07;5.53;;;;;;;18.22;62.61;101720.34;4922939;28;119977;-79
2022/06/16 06:16:25;;;;;;;11.02;5.10;;;;;;;18.33;62.00;101718.50;4951833;28;121710;-79
2022/06/16 06:18:59;;;;;;;12.82;4.90;;;;;;;18.42;62.42;101726.72;4937358;28;120792;-79
2022/06/16 06:24:13;;;;;;;9.55;4.80;;;;;;;18.54;63.31;101726.94;4932642;28;119473;-81
2022/06/16 06:26:40;;;;;;;10.55;4.53;;;;;;;18.58;63.41;101730.28;4904946;28;120917;-81
2022/06/16 06:29:06;;;;;;;11.82;3.80;;;;;;;18.62;62.72;101728.06;4920856;28;121345;-80
2022/06/16 06:31:32;;;;;;;8.43;3.25;;;;;;;18.70;62.97;101738.34;4937881;28;119314;-81
2022/06/16 06:34:01;;;;;;;9.48;3.03;;;;;;;18.72;61.69;101735.09;4936865;28;121069;-81
2022/06/16 06:36:26;;;;;;;5.57;2.47;;;;;;;18.75;60.73;101736.91;4932866;28;119590;-81
2022/06/16 06:38:52;;;;;;;8.23;2.63;;;;;;;18.72;59.95;101731.53;4921784;28;119665;-81
2022/06/16 06:41:19;;;;;;;8.95;2.78;;;;;;;18.82;59.11;101744.06;4917706;28;120412;-81
2022/06/16 06:43:44;;;;;;;6.90;2.63;;;;;;;18.85;58.39;101748.66;4928590;28;119630;-80
2022/06/16 06:46:11;;;;;;;7.03;2.33;;;;;;;18.86;58.63;101741.84;4939149;28;119142;-81
2022/06/16 06:48:37;;;;;;;6.88;2.92;;;;;;;18.92;59.86;101739.91;4927810;28;119977;-81
2022/06/16 06:51:03;;;;;;;10.25;3.05;;;;;;;18.96;59.55;101748.84;4917798;28;119954;-81
2022/06/16 06:53:29;;;;;;;8.05;2.70;;;;;;;18.95;59.53;101745.28;4926584;28;119683;-80
2022/06/16 06:55:55;;;;;;;7.13;2.20;;;;;;;19.01;59.59;101742.59;4923850;28;120479;-81
2022/06/16 06:58:23;;;;;;;7.13;2.20;;;;;;;19.09;58.18;101752.06;4937636;28;119899;-81
2022/06/16 07:00:53;;;;;;;10.27;2.58;;;;;;;19.11;58.95;101751.56;4942141;28;119324;-81
2022/06/16 07:03:20;;;;;;;7.70;2.42;;;;;;;19.17;58.06;101752.44;4938016;28;119682;-80
2022/06/16 07:05:47;;;;;;;6.80;2.47;;;;;;;19.17;56.03;101758.00;4936148;28;120487;-81
2022/06/16 07:08:13;;;;;;;6.65;2.10;;;;;;;19.21;57.61;101762.09;4938309;28;119404;-81
2022/06/16 07:10:42;;;;;;;8.57;2.53;;;;;;;19.18;57.85;101748.41;4937335;28;119834;-81
2022/06/16 07:13:07;;;;;;;6.03;2.75;;;;;;;19.26;57.47;101741.16;4932571;28;120523;-81
2022/06/16 07:15:34;;;;;;;5.93;2.25;;;;;;;19.30;58.16;101742.50;4941055;28;120338;-81
2022/06/16 07:18:00;;;;;;;7.20;2.40;;;;;;;19.37;58.37;101749.66;4928827;28;119391;-81
2022/06/16 07:20:26;;;;;;;6.15;2.40;;;;;;;19.39;57.00;101747.13;4928836;28;119459;-81
2022/06/16 07:22:52;;;;;;;7.60;2.10;;;;;;;19.42;55.65;101751.00;4931910;28;119531;-81
2022/06/16 07:25:19;;;;;;;4.50;2.08;;;;;;;19.47;54.80;101758.66;4933854;28;119726;-81
2022/06/16 07:27:45;;;;;;;5.97;1.95;;;;;;;19.50;53.54;101766.78;4935675;28;119730;-81
2022/06/16 07:30:36;;;;;;;7.18;2.53;;;;;;;19.52;54.65;101767.06;4859319;28;119630;-81
2022/06/16 07:33:02;;;;;;;7.07;2.17;;;;;;;19.57;53.84;101774.75;4858151;28;119731;-81
2022/06/16 07:35:28;;;;;;;5.07;1.88;;;;;;;19.52;53.20;101764.28;4907617;28;120373;-81
2022/06/16 07:37:54;;;;;;;8.52;2.03;;;;;;;19.59;54.25;101772.22;4933070;28;119778;-80
2022/06/16 07:40:20;;;;;;;5.00;2.10;;;;;;;19.62;52.98;101778.84;4917545;28;119674;-81
2022/06/16 07:42:46;;;;;;;6.95;2.20;;;;;;;19.66;53.43;101781.44;4914752;28;122118;-80
2022/06/16 07:45:13;;;;;;;5.32;2.10;;;;;;;19.68;54.72;101767.78;4935233;28;119100;-80
2022/06/16 07:47:40;;;;;;;4.07;2.10;;;;;;;19.74;54.48;101766.59;4934255;28;119787;-81
2022/06/16 07:50:08;;;;;;;8.07;2.15;;;;;;;19.81;52.87;101774.53;4928535;28;119593;-81
2022/06/16 07:52:36;;;;;;;7.95;2.40;;;;;;;19.87;53.84;101760.66;4932588;28;119750;-80
2022/06/16 07:55:03;;;;;;;7.25;1.92;;;;;;;19.97;51.82;101767.63;4931653;28;121951;-81
2022/06/16 07:57:31;;;;;;;4.00;1.75;;;;;;;19.98;52.31;101757.25;4936225;28;119973;-81
2022/06/16 07:59:59;;;;;;;4.13;1.77;;;;;;;20.04;50.02;101764.41;4934309;28;120570;-81
2022/06/16 08:02:26;;;;;;;4.50;1.83;;;;;;;20.12;51.90;101762.72;4935997;28;118721;-81
2022/06/16 08:05:16;;;;;;;4.18;1.58;;;;;;;20.16;51.77;101765.28;4925619;28;120343;-81
2022/06/16 08:07:44;;;;;;;4.32;1.60;;;;;;;20.21;51.74;101764.56;4909753;28;120012;-81
2022/06/16 08:10:14;;;;;;;3.88;1.70;;;;;;;20.26;51.53;101768.66;4935043;28;119486;-80
2022/06/16 08:12:43;;;;;;;7.30;1.90;;;;;;;20.34;52.02;101769.75;4924016;28;120278;-81
2022/06/16 08:15:10;;;;;;;6.38;2.35;;;;;;;20.42;52.05;101763.28;4927693;28;119968;-80
2022/06/16 08:17:43;;;;;;;7.28;2.00;;;;;;;20.51;51.79;101770.69;4928627;28;119898;-80
2022/06/16 08:20:23;;;;;;;5.80;2.05;;;;;;;20.57;51.10;101757.56;4924109;28;119806;-80
2022/06/16 08:22:49;;;;;;;4.53;1.40;;;;;;;20.64;49.64;101761.94;4926594;28;119728;-80
2022/06/16 08:25:19;;;;;;;5.85;1.80;;;;;;;20.70;48.39;101763.53;4934270;28;119953;-81
2022/06/16 08:27:48;;;;;;;5.40;1.85;;;;;;;20.84;49.51;101765.41;4930820;28;119807;-81
2022/06/16 08:30:16;;;;;;;4.50;1.50;;;;;;;20.93;49.71;101766.47;4926704;28;119676;-81
2022/06/16 08:32:52;;;;;;;4.25;1.77;;;;;;;21.03;50.28;101767.78;4912490;28;119561;-81
2022/06/16 08:35:17;;;;;;;6.28;1.98;;;;;;;21.09;50.27;101760.25;4908856;28;123420;-81
2022/06/16 08:37:43;;;;;;;4.65;1.50;;;;;;;21.19;49.26;101766.38;4935354;28;119541;-81
2022/06/16 08:40:10;;;;;;;6.20;1.80;;;;;;;21.28;49.90;101778.13;4931031;28;120742;-81
2022/06/16 08:42:44;;;;;;;5.32;1.45;;;;;;;21.35;49.40;101769.31;4930983;28;121413;-81
2022/06/16 08:45:30;;;;;;;3.58;1.50;;;;;;;21.44;50.11;101766.28;4934309;28;120009;-81
2022/06/16 08:48:05;;;;;;;6.93;1.80;;;;;;;21.50;49.11;101762.75;4935001;28;119684;-81
2022/06/16 08:51:00;;;;;;;4.38;1.65;;;;;;;21.52;49.60;101765.81;4940576;28;119765;-81
2022/06/16 08:53:50;;;;;;;5.15;1.92;;;;;;;21.60;47.72;101770.44;4910819;28;121352;-81
2022/06/16 08:56:35;;;;;;;4.63;1.80;;;;;;;21.62;47.72;101772.72;4933313;28;120595;-81
2022/06/16 08:59:48;;;;;;;4.63;1.83;;;;;;;21.65;48.27;101774.50;4928475;28;119853;-81
2022/06/16 09:02:21;;;;;;;5.60;1.97;;;;;;;21.65;49.36;101774.50;4913821;28;119515;-81
2022/06/16 09:04:55;;;;;;;6.67;1.93;;;;;;;21.66;48.72;101764.88;4929386;28;120056;-80
2022/06/16 09:07:27;;;;;;;8.23;2.00;;;;;;;21.74;49.11;101765.91;4924329;28;119736;-81
2022/06/16 09:10:35;;;;;;;6.78;2.28;;;;;;;21.83;49.56;101768.47;4933554;28;120008;-81
2022/06/16 09:13:10;;;;;;;5.65;2.28;;;;;;;21.89;48.52;101772.06;4907133;28;121990;-80
2022/06/16 09:15:46;;;;;;;2.83;1.50;;;;;;;21.94;46.47;101768.50;4934546;28;119675;-80
2022/06/16 09:18:28;;;;;;;5.22;2.00;;;;;;;21.90;47.31;101773.56;4923811;28;119711;-81
2022/06/16 09:21:24;;;;;;;5.05;2.17;;;;;;;21.87;47.73;101769.00;4951716;28;120159;-81
2022/06/16 09:23:59;;;;;;;5.32;1.80;;;;;;;21.92;48.08;101765.44;4912137;28;120877;-81
2022/06/16 09:26:43;;;;;;;7.45;2.00;;;;;;;21.97;48.08;101766.72;4938752;28;120307;-81
2022/06/16 09:29:21;;;;;;;5.63;1.80;;;;;;;22.05;47.66;101765.78;4942039;28;119506;-81
2022/06/16 09:32:13;;;;;;;5.60;1.83;;;;;;;22.10;48.52;101758.66;4920204;28;120733;-81
2022/06/16 09:34:48;;;;;;;4.05;1.83;;;;;;;22.02;47.61;101760.41;4932049;28;122103;-81
2022/06/16 09:37:35;;;;;;;6.80;2.22;;;;;;;21.93;47.63;101755.81;4933248;28;119555;-81
2022/06/16 09:40:26;;;;;;;6.50;1.52;;;;;;;21.96;47.33;101759.63;4935564;28;120005;-80
2022/06/16 09:42:52;;;;;;;4.85;2.10;;;;;;;22.04;47.84;101763.50;4917519;28;119777;-80
2022/06/16 09:45:17;;;;;;;7.32;2.22;;;;;;;22.08;45.74;101764.00;4934199;28;119871;-80
2022/06/16 09:47:46;;;;;;;6.22;1.90;;;;;;;22.06;45.97;101758.16;4934922;28;120863;-80
2022/06/16 09:50:37;;;;;;;5.55;2.03;;;;;;;22.05;45.95;101754.59;4915401;28;119874;-80
2022/06/16 09:53:41;;;;;;;6.13;2.08;;;;;;;22.10;45.38;101758.66;4925813;28;119938;-80
2022/06/16 09:56:19;;;;;;;5.70;1.70;;;;;;;22.11;46.11;101754.59;4930770;28;121852;-80
2022/06/16 09:58:52;;;;;;;5.70;2.42;;;;;;;22.04;47.33;101752.31;4935186;28;119690;-81
2022/06/16 10:01:22;;;;;;;3.45;2.00;;;;;;;22.06;47.33;101763.75;4939563;28;119703;-80
2022/06/16 10:04:06;;;;;;;6.25;2.42;;;;;;;22.08;48.12;101761.22;4940980;28;119588;-81
2022/06/16 10:07:02;;;;;;;8.35;2.28;;;;;;;22.10;46.94;101758.66;4938378;28;121597;-80
2022/06/16 10:09:34;;;;;;;3.53;1.77;;;;;;;22.00;44.84;101772.09;4930354;28;120230;-80
2022/06/16 10:12:11;;;;;;;5.97;2.20;;;;;;;21.94;45.33;101759.38;4939862;28;119483;-80
2022/06/16 10:14:41;;;;;;;9.00;2.05;;;;;;;21.92;45.72;101770.28;4932749;28;119736;-80
2022/06/16 10:17:10;;;;;;;6.45;2.30;;;;;;;21.94;45.94;101762.91;4921373;28;120044;-81
2022/06/16 10:19:39;;;;;;;5.43;2.25;;;;;;;21.95;46.94;101750.47;4939758;28;119904;-81
2022/06/16 10:22:14;;;;;;;6.18;2.65;;;;;;;22.05;45.99;101762.22;4939012;28;122484;-80
2022/06/16 10:24:47;;;;;;;9.10;2.30;;;;;;;22.13;46.73;101787.63;4921951;28;122896;-81
2022/06/16 10:27:15;;;;;;;6.18;2.42;;;;;;;22.14;46.42;101781.53;4922355;28;119652;-80
2022/06/16 10:29:56;;;;;;;6.45;2.30;;;;;;;22.19;45.83;101788.41;4936173;28;119607;-81
2022/06/16 10:32:47;;;;;;;5.68;2.10;;;;;;;22.20;45.67;101781.53;4924150;28;120596;-81
2022/06/16 10:35:21;;;;;;;6.55;2.30;;;;;;;22.16;45.65;101786.63;4934628;28;120720;-80
2022/06/16 10:37:50;;;;;;;3.13;1.83;;;;;;;22.16;45.54;101792.97;4937411;28;119925;-81
2022/06/16 10:40:29;;;;;;;6.28;2.28;;;;;;;22.18;43.93;101792.47;4938910;28;119890;-80
2022/06/16 10:43:05;;;;;;;5.88;2.03;;;;;;;22.20;45.29;101787.13;4939753;28;119373;-81
2022/06/16 10:45:37;;;;;;;4.20;2.00;;;;;;;22.23;45.90;101795.25;4939364;28;119438;-81
2022/06/16 10:48:07;;;;;;;7.25;2.28;;;;;;;22.25;45.63;101797.56;4936658;28;119715;-80
2022/06/16 10:50:43;;;;;;;3.88;1.92;;;;;;;22.19;45.48;101794.75;4921669;28;124094;-80
2022/06/16 10:53:26;;;;;;;6.30;2.53;;;;;;;22.20;45.66;101796.28;4918821;28;119608;-81
2022/06/16 10:56:01;;;;;;;5.60;2.50;;;;;;;22.18;45.20;101795.25;4919874;28;119305;-81
2022/06/16 10:58:57;;;;;;;6.80;2.20;;;;;;;22.16;45.32;101789.41;4924829;28;119640;-81
2022/06/16 11:01:31;;;;;;;5.93;1.97;;;;;;;22.19;45.39;101803.13;4919308;28;119869;-81
2022/06/16 11:04:11;;;;;;;5.10;1.85;;;;;;;22.22;44.68;101806.94;4919906;28;119548;-80
2022/06/16 11:06:52;;;;;;;3.55;1.60;;;;;;;22.25;45.09;101803.16;4918589;28;121023;-80
2022/06/16 11:09:21;;;;;;;4.15;2.13;;;;;;;22.21;44.07;101811.00;4954973;28;119531;-80
2022/06/16 11:11:53;;;;;;;5.18;2.20;;;;;;;22.18;45.05;101804.41;4942298;28;119962;-81
2022/06/16 11:14:36;;;;;;;6.78;2.20;;;;;;;22.15;45.28;101805.41;4938740;28;119471;-81
2022/06/16 11:17:18;;;;;;;5.90;1.63;;;;;;;22.11;45.43;101782.56;4938847;28;119457;-81
2022/06/16 11:19:48;;;;;;;5.88;1.90;;;;;;;22.18;45.27;101796.03;4938398;28;119581;-81
2022/06/16 11:22:24;;;;;;;5.50;1.73;;;;;;;22.24;44.86;101810.00;4938920;28;119846;-81
2022/06/16 11:25:16;;;;;;;5.50;2.38;;;;;;;22.24;45.50;101794.03;4919014;28;119923;-81
2022/06/16 11:27:49;;;;;;;4.28;1.67;;;;;;;22.26;45.55;101794.28;4922593;28;119838;-80
2022/06/16 11:30:53;;;;;;;7.20;1.85;;;;;;;22.27;43.49;101795.03;4940069;28;119675;-81
2022/06/16 11:36:45;;;;;;;3.92;1.77;;;;;;;22.32;44.73;101800.63;4933702;28;120013;-79
2022/06/16 11:39:11;;;;;;;4.03;1.63;;;;;;;22.33;45.02;101796.56;4948373;28;119614;-80
2022/06/16 11:41:41;;;;;;;4.82;1.80;;;;;;;22.27;44.71;101790.22;4922073;28;119462;-80
2022/06/16 11:44:16;;;;;;;5.53;1.80;;;;;;;22.31;43.73;101795.56;4927716;28;119806;-80
2022/06/16 11:46:56;;;;;;;5.03;1.77;;;;;;;22.29;44.14;101795.28;4930195;28;119632;-80
2022/06/16 11:49:38;;;;;;;4.57;2.15;;;;;;;22.29;45.15;101793.25;4927516;28;123385;-80
2022/06/16 11:52:12;;;;;;;4.87;2.00;;;;;;;22.29;44.57;101798.84;4935123;28;119583;-81
2022/06/16 11:55:06;;;;;;;4.47;2.10;;;;;;;22.33;44.22;101804.19;4930099;28;120147;-80
2022/06/16 11:57:57;;;;;;;4.72;2.20;;;;;;;22.36;44.70;101798.34;4927946;28;119906;-80
2022/06/16 12:00:40;;;;;;;5.28;2.03;;;;;;;22.42;45.77;101794.78;4939212;28;119769;-80
2022/06/16 12:03:17;;;;;;;4.17;2.10;;;;;;;22.45;45.05;101794.53;4925114;28;120094;-81
2022/06/16 12:06:06;;;;;;;5.03;2.15;;;;;;;22.45;44.82;101797.31;4915005;28;120252;-81
2022/06/16 12:08:44;;;;;;;4.97;2.08;;;;;;;22.49;44.96;101802.69;4927153;28;119691;-80
2022/06/16 12:11:25;;;;;;;5.15;2.00;;;;;;;22.48;45.14;101799.13;4917721;28;121031;-81